sensor_id;sensor_type;location;lat;lon;timestamp;temperature;humidity
25410;DHT22;13339;50.840;4.346;2023-03-14T00:01:44;13.80;99.90
25410;DHT22;13339;50.840;4.346;2023-03-14T00:04:10;13.80;99.90
25410;DHT22;13339;50.840;4.346;2023-03-14T00:06:35;13.80;99.90
25410;DHT22;13339;50.840;4.346;2023-03-14T00:09:01;13.80;99.90
25410;DHT22;13339;50.840;4.346;2023-03-14T00:11:27;13.80;99.90
25410;DHT22;13339;50.840;4.346;2023-03-14T00:13:52;13.80;99.90
25410;DHT22;13339;50.840;4.346;2023-03-14T00:16:19;13.60;99.90
25410;DHT22;13339;50.840;4.346;2023-03-14T00:18:44;13.60;99.90
25410;DHT22;13339;50.840;4.346;2023-03-14T00:21:11;13.60;99.90
25410;DHT22;13339;50.840;4.346;2023-03-14T00:23:38;13.60;99.90
25410;DHT22;13339;50.840;4.346;2023-03-14T00:26:12;13.40;99.90
25410;DHT22;13339;50.840;4.346;2023-03-14T00:28:39;13.30;99.90
25410;DHT22;13339;50.840;4.346;2023-03-14T00:31:07;13.20;99.90
25410;DHT22;13339;50.840;4.346;2023-03-14T00:33:33;13.20;99.90
25410;DHT22;13339;50.840;4.346;2023-03-14T00:36:08;13.30;99.90
25410;DHT22;13339;50.840;4.346;2023-03-14T00:38:34;13.30;99.90
25410;DHT22;13339;50.840;4.346;2023-03-14T00:41:07;13.30;99.90
25410;DHT22;13339;50.840;4.346;2023-03-14T00:43:33;13.30;99.90
25410;DHT22;13339;50.840;4.346;2023-03-14T00:45:59;13.40;99.90
25410;DHT22;13339;50.840;4.346;2023-03-14T00:48:25;13.60;99.90
25410;DHT22;13339;50.840;4.346;2023-03-14T00:50:50;13.40;99.90
25410;DHT22;13339;50.840;4.346;2023-03-14T00:53:17;13.40;99.90
25410;DHT22;13339;50.840;4.346;2023-03-14T00:55:43;13.30;99.90
25410;DHT22;13339;50.840;4.346;2023-03-14T00:58:11;13.40;99.90
25410;DHT22;13339;50.840;4.346;2023-03-14T01:00:37;13.30;99.90
25410;DHT22;13339;50.840;4.346;2023-03-14T01:03:02;13.30;99.90
25410;DHT22;13339;50.840;4.346;2023-03-14T01:05:29;13.20;99.90
25410;DHT22;13339;50.840;4.346;2023-03-14T01:07:55;13.30;99.90
25410;DHT22;13339;50.840;4.346;2023-03-14T01:10:20;13.40;99.90
25410;DHT22;13339;50.840;4.346;2023-03-14T01:12:46;13.30;99.90
25410;DHT22;13339;50.840;4.346;2023-03-14T01:15:12;13.40;99.90
25410;DHT22;13339;50.840;4.346;2023-03-14T01:17:37;13.20;99.90
25410;DHT22;13339;50.840;4.346;2023-03-14T01:20:05;13.20;99.90
25410;DHT22;13339;50.840;4.346;2023-03-14T01:22:34;13.10;99.90
25410;DHT22;13339;50.840;4.346;2023-03-14T01:25:00;13.20;99.90
25410;DHT22;13339;50.840;4.346;2023-03-14T01:27:26;13.20;99.90
25410;DHT22;13339;50.840;4.346;2023-03-14T01:29:51;13.30;99.90
25410;DHT22;13339;50.840;4.346;2023-03-14T01:32:17;13.30;99.90
25410;DHT22;13339;50.840;4.346;2023-03-14T01:34:42;13.30;99.90
25410;DHT22;13339;50.840;4.346;2023-03-14T01:37:08;13.20;99.90
25410;DHT22;13339;50.840;4.346;2023-03-14T01:39:33;13.10;99.90
25410;DHT22;13339;50.840;4.346;2023-03-14T01:42:00;13.20;99.90
25410;DHT22;13339;50.840;4.346;2023-03-14T01:44:26;13.20;99.90
25410;DHT22;13339;50.840;4.346;2023-03-14T01:46:52;13.00;99.90
25410;DHT22;13339;50.840;4.346;2023-03-14T01:52:11;13.10;99.90
25410;DHT22;13339;50.840;4.346;2023-03-14T01:54:50;13.00;99.90
25410;DHT22;13339;50.840;4.346;2023-03-14T01:57:28;12.90;99.90
25410;DHT22;13339;50.840;4.346;2023-03-14T01:59:59;13.00;99.90
25410;DHT22;13339;50.840;4.346;2023-03-14T02:02:27;12.80;99.90
25410;DHT22;13339;50.840;4.346;2023-03-14T02:04:54;12.90;99.90
25410;DHT22;13339;50.840;4.346;2023-03-14T02:07:34;12.90;99.90
25410;DHT22;13339;50.840;4.346;2023-03-14T02:10:01;12.90;99.90
25410;DHT22;13339;50.840;4.346;2023-03-14T02:12:28;12.90;99.90
25410;DHT22;13339;50.840;4.346;2023-03-14T02:14:54;12.90;99.90
25410;DHT22;13339;50.840;4.346;2023-03-14T02:17:20;12.80;99.90
25410;DHT22;13339;50.840;4.346;2023-03-14T02:19:55;12.70;99.90
25410;DHT22;13339;50.840;4.346;2023-03-14T02:22:22;12.70;99.90
25410;DHT22;13339;50.840;4.346;2023-03-14T02:25:03;12.40;99.90
25410;DHT22;13339;50.840;4.346;2023-03-14T02:27:31;12.50;99.90
25410;DHT22;13339;50.840;4.346;2023-03-14T02:30:10;12.60;99.90
25410;DHT22;13339;50.840;4.346;2023-03-14T02:32:38;12.70;99.90
25410;DHT22;13339;50.840;4.346;2023-03-14T02:35:08;12.70;99.90
25410;DHT22;13339;50.840;4.346;2023-03-14T02:40:12;12.80;99.90
25410;DHT22;13339;50.840;4.346;2023-03-14T02:42:38;12.80;99.90
25410;DHT22;13339;50.840;4.346;2023-03-14T02:47:37;12.80;99.90
25410;DHT22;13339;50.840;4.346;2023-03-14T02:50:12;12.90;99.90
25410;DHT22;13339;50.840;4.346;2023-03-14T02:52:38;12.80;99.90
25410;DHT22;13339;50.840;4.346;2023-03-14T02:55:04;12.90;99.90
25410;DHT22;13339;50.840;4.346;2023-03-14T02:57:30;13.00;99.90
25410;DHT22;13339;50.840;4.346;2023-03-14T02:59:59;13.00;99.90
25410;DHT22;13339;50.840;4.346;2023-03-14T03:02:30;12.80;99.90
25410;DHT22;13339;50.840;4.346;2023-03-14T03:04:55;12.80;99.90
25410;DHT22;13339;50.840;4.346;2023-03-14T03:07:21;12.80;99.90
25410;DHT22;13339;50.840;4.346;2023-03-14T03:09:47;12.70;99.90
25410;DHT22;13339;50.840;4.346;2023-03-14T03:12:12;12.80;99.90
25410;DHT22;13339;50.840;4.346;2023-03-14T03:14:38;12.80;99.90
25410;DHT22;13339;50.840;4.346;2023-03-14T03:17:04;12.80;99.90
25410;DHT22;13339;50.840;4.346;2023-03-14T03:19:31;12.90;99.90
25410;DHT22;13339;50.840;4.346;2023-03-14T03:21:56;12.90;99.90
25410;DHT22;13339;50.840;4.346;2023-03-14T03:24:23;12.90;99.90
25410;DHT22;13339;50.840;4.346;2023-03-14T03:26:49;12.90;99.90
25410;DHT22;13339;50.840;4.346;2023-03-14T03:29:14;12.90;99.90
25410;DHT22;13339;50.840;4.346;2023-03-14T03:31:40;12.80;99.90
25410;DHT22;13339;50.840;4.346;2023-03-14T03:34:06;12.80;99.90
25410;DHT22;13339;50.840;4.346;2023-03-14T03:36:31;12.90;99.90
25410;DHT22;13339;50.840;4.346;2023-03-14T03:38:57;12.90;99.90
25410;DHT22;13339;50.840;4.346;2023-03-14T03:41:23;12.90;99.90
25410;DHT22;13339;50.840;4.346;2023-03-14T03:43:48;12.90;99.90
25410;DHT22;13339;50.840;4.346;2023-03-14T03:46:14;12.90;99.90
25410;DHT22;13339;50.840;4.346;2023-03-14T03:48:40;12.90;99.90
25410;DHT22;13339;50.840;4.346;2023-03-14T03:51:06;13.00;99.90
25410;DHT22;13339;50.840;4.346;2023-03-14T03:53:32;12.90;99.90
25410;DHT22;13339;50.840;4.346;2023-03-14T03:55:57;12.80;99.90
25410;DHT22;13339;50.840;4.346;2023-03-14T03:58:23;12.90;99.90
25410;DHT22;13339;50.840;4.346;2023-03-14T04:00:48;12.90;99.90
25410;DHT22;13339;50.840;4.346;2023-03-14T04:03:14;13.00;99.90
25410;DHT22;13339;50.840;4.346;2023-03-14T04:05:40;13.00;99.90
25410;DHT22;13339;50.840;4.346;2023-03-14T04:08:05;13.10;99.90
25410;DHT22;13339;50.840;4.346;2023-03-14T04:10:34;13.10;99.90
25410;DHT22;13339;50.840;4.346;2023-03-14T04:13:00;12.90;99.90
25410;DHT22;13339;50.840;4.346;2023-03-14T04:15:25;13.00;99.90
25410;DHT22;13339;50.840;4.346;2023-03-14T04:17:51;12.90;99.90
25410;DHT22;13339;50.840;4.346;2023-03-14T04:20:16;12.90;99.90
25410;DHT22;13339;50.840;4.346;2023-03-14T04:22:42;13.00;99.90
25410;DHT22;13339;50.840;4.346;2023-03-14T04:25:08;13.00;99.90
25410;DHT22;13339;50.840;4.346;2023-03-14T04:27:33;12.90;99.90
25410;DHT22;13339;50.840;4.346;2023-03-14T04:29:59;12.90;99.90
25410;DHT22;13339;50.840;4.346;2023-03-14T04:32:24;12.80;99.90
25410;DHT22;13339;50.840;4.346;2023-03-14T04:34:50;12.70;99.90
25410;DHT22;13339;50.840;4.346;2023-03-14T04:37:16;12.70;99.90
25410;DHT22;13339;50.840;4.346;2023-03-14T04:39:42;12.70;99.90
25410;DHT22;13339;50.840;4.346;2023-03-14T04:42:07;12.70;99.90
25410;DHT22;13339;50.840;4.346;2023-03-14T04:44:33;12.60;99.90
25410;DHT22;13339;50.840;4.346;2023-03-14T04:46:59;12.50;99.90
25410;DHT22;13339;50.840;4.346;2023-03-14T04:49:24;12.70;99.90
25410;DHT22;13339;50.840;4.346;2023-03-14T04:51:50;12.80;99.90
25410;DHT22;13339;50.840;4.346;2023-03-14T04:54:18;12.80;99.90
25410;DHT22;13339;50.840;4.346;2023-03-14T04:56:44;12.80;99.90
25410;DHT22;13339;50.840;4.346;2023-03-14T04:59:09;12.80;99.90
25410;DHT22;13339;50.840;4.346;2023-03-14T05:01:35;12.80;99.90
25410;DHT22;13339;50.840;4.346;2023-03-14T05:04:01;12.90;99.90
25410;DHT22;13339;50.840;4.346;2023-03-14T05:06:26;12.80;99.90
25410;DHT22;13339;50.840;4.346;2023-03-14T05:08:52;12.90;99.90
25410;DHT22;13339;50.840;4.346;2023-03-14T05:11:18;12.70;99.90
25410;DHT22;13339;50.840;4.346;2023-03-14T05:13:43;12.80;99.90
25410;DHT22;13339;50.840;4.346;2023-03-14T05:16:10;12.80;99.90
25410;DHT22;13339;50.840;4.346;2023-03-14T05:18:37;12.90;99.90
25410;DHT22;13339;50.840;4.346;2023-03-14T05:21:03;13.00;99.90
25410;DHT22;13339;50.840;4.346;2023-03-14T05:23:29;12.90;99.90
25410;DHT22;13339;50.840;4.346;2023-03-14T05:25:55;12.80;99.90
25410;DHT22;13339;50.840;4.346;2023-03-14T05:28:20;12.80;99.90
25410;DHT22;13339;50.840;4.346;2023-03-14T05:30:46;12.90;99.90
25410;DHT22;13339;50.840;4.346;2023-03-14T05:33:12;12.80;99.90
25410;DHT22;13339;50.840;4.346;2023-03-14T05:35:37;12.90;99.90
25410;DHT22;13339;50.840;4.346;2023-03-14T05:38:03;12.80;99.90
25410;DHT22;13339;50.840;4.346;2023-03-14T05:40:29;12.70;99.90
25410;DHT22;13339;50.840;4.346;2023-03-14T05:42:54;12.70;99.90
25410;DHT22;13339;50.840;4.346;2023-03-14T05:45:20;12.70;99.90
25410;DHT22;13339;50.840;4.346;2023-03-14T05:47:46;12.70;99.90
25410;DHT22;13339;50.840;4.346;2023-03-14T05:50:12;12.70;99.90
25410;DHT22;13339;50.840;4.346;2023-03-14T05:52:37;12.60;99.90
25410;DHT22;13339;50.840;4.346;2023-03-14T05:55:03;12.70;99.90
25410;DHT22;13339;50.840;4.346;2023-03-14T05:57:30;12.70;99.90
25410;DHT22;13339;50.840;4.346;2023-03-14T05:59:55;12.70;99.90
25410;DHT22;13339;50.840;4.346;2023-03-14T06:02:21;12.80;99.90
25410;DHT22;13339;50.840;4.346;2023-03-14T06:04:46;12.80;99.90
25410;DHT22;13339;50.840;4.346;2023-03-14T06:07:12;12.70;99.90
25410;DHT22;13339;50.840;4.346;2023-03-14T06:09:37;12.70;99.90
25410;DHT22;13339;50.840;4.346;2023-03-14T06:12:05;12.70;99.90
25410;DHT22;13339;50.840;4.346;2023-03-14T06:14:31;12.80;99.90
25410;DHT22;13339;50.840;4.346;2023-03-14T06:16:56;12.90;99.90
25410;DHT22;13339;50.840;4.346;2023-03-14T06:19:24;13.10;99.90
25410;DHT22;13339;50.840;4.346;2023-03-14T06:21:50;13.10;99.90
25410;DHT22;13339;50.840;4.346;2023-03-14T06:24:16;13.00;99.90
25410;DHT22;13339;50.840;4.346;2023-03-14T06:26:42;12.90;99.90
25410;DHT22;13339;50.840;4.346;2023-03-14T06:29:07;12.90;99.90
25410;DHT22;13339;50.840;4.346;2023-03-14T06:31:33;13.00;99.90
25410;DHT22;13339;50.840;4.346;2023-03-14T06:33:58;13.00;99.90
25410;DHT22;13339;50.840;4.346;2023-03-14T06:36:24;13.00;99.90
25410;DHT22;13339;50.840;4.346;2023-03-14T06:38:50;13.00;99.90
25410;DHT22;13339;50.840;4.346;2023-03-14T06:41:15;13.00;99.90
25410;DHT22;13339;50.840;4.346;2023-03-14T06:43:41;13.10;99.90
25410;DHT22;13339;50.840;4.346;2023-03-14T06:46:07;13.00;99.90
25410;DHT22;13339;50.840;4.346;2023-03-14T06:48:32;13.10;99.90
25410;DHT22;13339;50.840;4.346;2023-03-14T06:50:58;12.70;99.90
25410;DHT22;13339;50.840;4.346;2023-03-14T06:53:24;12.30;99.90
25410;DHT22;13339;50.840;4.346;2023-03-14T06:55:49;11.80;99.90
25410;DHT22;13339;50.840;4.346;2023-03-14T06:58:15;11.60;99.90
25410;DHT22;13339;50.840;4.346;2023-03-14T07:00:41;11.30;99.90
25410;DHT22;13339;50.840;4.346;2023-03-14T07:03:06;11.20;99.90
25410;DHT22;13339;50.840;4.346;2023-03-14T07:05:32;11.10;99.90
25410;DHT22;13339;50.840;4.346;2023-03-14T07:07:58;11.10;99.90
25410;DHT22;13339;50.840;4.346;2023-03-14T07:10:23;10.90;99.90
25410;DHT22;13339;50.840;4.346;2023-03-14T07:12:49;10.80;99.90
25410;DHT22;13339;50.840;4.346;2023-03-14T07:15:14;10.70;99.90
25410;DHT22;13339;50.840;4.346;2023-03-14T07:17:40;10.40;99.90
25410;DHT22;13339;50.840;4.346;2023-03-14T07:20:06;10.30;99.90
25410;DHT22;13339;50.840;4.346;2023-03-14T07:22:33;10.30;99.90
25410;DHT22;13339;50.840;4.346;2023-03-14T07:24:58;10.20;99.90
25410;DHT22;13339;50.840;4.346;2023-03-14T07:27:24;10.20;99.90
25410;DHT22;13339;50.840;4.346;2023-03-14T07:29:49;10.20;99.90
25410;DHT22;13339;50.840;4.346;2023-03-14T07:32:15;10.20;99.90
25410;DHT22;13339;50.840;4.346;2023-03-14T07:34:41;10.30;99.90
25410;DHT22;13339;50.840;4.346;2023-03-14T07:37:07;10.40;99.90
25410;DHT22;13339;50.840;4.346;2023-03-14T07:39:33;10.50;99.90
25410;DHT22;13339;50.840;4.346;2023-03-14T07:41:59;10.50;99.90
25410;DHT22;13339;50.840;4.346;2023-03-14T07:44:25;10.50;99.90
25410;DHT22;13339;50.840;4.346;2023-03-14T07:46:50;10.50;99.90
25410;DHT22;13339;50.840;4.346;2023-03-14T07:49:16;10.50;99.90
25410;DHT22;13339;50.840;4.346;2023-03-14T07:51:41;10.50;99.90
25410;DHT22;13339;50.840;4.346;2023-03-14T07:54:09;10.60;99.90
25410;DHT22;13339;50.840;4.346;2023-03-14T07:56:35;10.60;99.90
25410;DHT22;13339;50.840;4.346;2023-03-14T07:59:00;10.50;99.90
25410;DHT22;13339;50.840;4.346;2023-03-14T08:01:26;10.70;99.90
25410;DHT22;13339;50.840;4.346;2023-03-14T08:03:52;10.70;99.90
25410;DHT22;13339;50.840;4.346;2023-03-14T08:06:18;10.60;99.90
25410;DHT22;13339;50.840;4.346;2023-03-14T08:08:43;10.60;99.90
25410;DHT22;13339;50.840;4.346;2023-03-14T08:11:09;10.70;99.90
25410;DHT22;13339;50.840;4.346;2023-03-14T08:13:36;10.70;99.90
25410;DHT22;13339;50.840;4.346;2023-03-14T08:16:02;10.70;99.90
25410;DHT22;13339;50.840;4.346;2023-03-14T08:18:27;10.70;99.90
25410;DHT22;13339;50.840;4.346;2023-03-14T08:20:53;10.60;99.90
25410;DHT22;13339;50.840;4.346;2023-03-14T08:23:19;10.60;99.90
25410;DHT22;13339;50.840;4.346;2023-03-14T08:25:44;10.50;99.90
25410;DHT22;13339;50.840;4.346;2023-03-14T08:28:10;10.60;99.90
25410;DHT22;13339;50.840;4.346;2023-03-14T08:30:35;10.50;99.90
25410;DHT22;13339;50.840;4.346;2023-03-14T08:33:01;10.40;99.90
25410;DHT22;13339;50.840;4.346;2023-03-14T08:35:27;10.40;99.90
25410;DHT22;13339;50.840;4.346;2023-03-14T08:37:52;10.40;99.90
25410;DHT22;13339;50.840;4.346;2023-03-14T08:40:18;10.40;99.90
25410;DHT22;13339;50.840;4.346;2023-03-14T08:42:44;10.30;99.90
25410;DHT22;13339;50.840;4.346;2023-03-14T08:45:12;10.40;99.90
25410;DHT22;13339;50.840;4.346;2023-03-14T08:47:38;10.40;99.90
25410;DHT22;13339;50.840;4.346;2023-03-14T08:50:05;10.10;99.90
25410;DHT22;13339;50.840;4.346;2023-03-14T08:52:31;10.10;99.90
25410;DHT22;13339;50.840;4.346;2023-03-14T08:54:57;10.00;99.90
25410;DHT22;13339;50.840;4.346;2023-03-14T08:57:24;10.00;99.90
25410;DHT22;13339;50.840;4.346;2023-03-14T08:59:57;9.90;99.90
25410;DHT22;13339;50.840;4.346;2023-03-14T09:02:23;9.80;99.90
25410;DHT22;13339;50.840;4.346;2023-03-14T09:04:50;9.90;99.90
25410;DHT22;13339;50.840;4.346;2023-03-14T09:07:16;9.80;99.90
25410;DHT22;13339;50.840;4.346;2023-03-14T09:09:42;10.00;99.90
25410;DHT22;13339;50.840;4.346;2023-03-14T09:12:07;10.10;99.90
25410;DHT22;13339;50.840;4.346;2023-03-14T09:14:33;10.20;99.90
25410;DHT22;13339;50.840;4.346;2023-03-14T09:16:59;10.10;99.90
25410;DHT22;13339;50.840;4.346;2023-03-14T09:19:24;10.20;99.90
25410;DHT22;13339;50.840;4.346;2023-03-14T09:21:50;10.10;99.90
25410;DHT22;13339;50.840;4.346;2023-03-14T09:24:16;10.10;99.90
25410;DHT22;13339;50.840;4.346;2023-03-14T09:26:42;10.00;99.90
25410;DHT22;13339;50.840;4.346;2023-03-14T09:29:08;10.00;99.90
25410;DHT22;13339;50.840;4.346;2023-03-14T09:31:34;10.00;99.90
25410;DHT22;13339;50.840;4.346;2023-03-14T09:34:00;10.00;99.90
25410;DHT22;13339;50.840;4.346;2023-03-14T09:36:26;10.20;99.90
25410;DHT22;13339;50.840;4.346;2023-03-14T09:38:51;10.30;99.90
25410;DHT22;13339;50.840;4.346;2023-03-14T09:41:29;10.30;99.90
25410;DHT22;13339;50.840;4.346;2023-03-14T09:44:08;10.30;99.90
25410;DHT22;13339;50.840;4.346;2023-03-14T09:46:37;10.30;99.90
25410;DHT22;13339;50.840;4.346;2023-03-14T09:49:10;10.30;99.90
25410;DHT22;13339;50.840;4.346;2023-03-14T09:51:36;10.20;99.90
25410;DHT22;13339;50.840;4.346;2023-03-14T09:54:03;10.20;99.90
25410;DHT22;13339;50.840;4.346;2023-03-14T09:56:32;10.30;99.90
25410;DHT22;13339;50.840;4.346;2023-03-14T09:59:00;10.10;99.90
25410;DHT22;13339;50.840;4.346;2023-03-14T10:01:32;10.10;99.90
25410;DHT22;13339;50.840;4.346;2023-03-14T10:04:06;10.20;99.90
25410;DHT22;13339;50.840;4.346;2023-03-14T10:06:35;10.20;99.90
25410;DHT22;13339;50.840;4.346;2023-03-14T10:09:01;10.30;99.90
25410;DHT22;13339;50.840;4.346;2023-03-14T10:11:29;10.40;99.90
25410;DHT22;13339;50.840;4.346;2023-03-14T10:16:32;10.60;99.90
25410;DHT22;13339;50.840;4.346;2023-03-14T10:19:10;10.60;99.90
25410;DHT22;13339;50.840;4.346;2023-03-14T10:21:39;10.60;99.90
25410;DHT22;13339;50.840;4.346;2023-03-14T10:26:53;10.60;99.90
25410;DHT22;13339;50.840;4.346;2023-03-14T10:29:18;10.40;99.90
25410;DHT22;13339;50.840;4.346;2023-03-14T10:34:20;10.30;99.90
25410;DHT22;13339;50.840;4.346;2023-03-14T10:36:46;10.30;99.90
25410;DHT22;13339;50.840;4.346;2023-03-14T10:39:40;10.20;99.90
25410;DHT22;13339;50.840;4.346;2023-03-14T10:44:37;10.00;99.90
25410;DHT22;13339;50.840;4.346;2023-03-14T10:47:04;9.90;99.90
25410;DHT22;13339;50.840;4.346;2023-03-14T10:49:35;10.00;99.90
25410;DHT22;13339;50.840;4.346;2023-03-14T10:52:15;9.90;99.90
25410;DHT22;13339;50.840;4.346;2023-03-14T10:54:47;9.80;99.90
25410;DHT22;13339;50.840;4.346;2023-03-14T10:57:13;9.80;99.90
25410;DHT22;13339;50.840;4.346;2023-03-14T10:59:41;9.80;99.90
25410;DHT22;13339;50.840;4.346;2023-03-14T11:05:19;10.00;99.90
25410;DHT22;13339;50.840;4.346;2023-03-14T11:07:46;10.10;99.90
25410;DHT22;13339;50.840;4.346;2023-03-14T11:10:32;10.10;99.90
25410;DHT22;13339;50.840;4.346;2023-03-14T11:15:46;10.10;99.90
25410;DHT22;13339;50.840;4.346;2023-03-14T11:26:46;9.80;99.90
25410;DHT22;13339;50.840;4.346;2023-03-14T11:29:33;9.80;99.90
25410;DHT22;13339;50.840;4.346;2023-03-14T11:32:07;9.70;99.90
25410;DHT22;13339;50.840;4.346;2023-03-14T11:34:40;9.30;99.90
25410;DHT22;13339;50.840;4.346;2023-03-14T11:37:21;9.10;99.90
25410;DHT22;13339;50.840;4.346;2023-03-14T11:42:36;9.10;99.90
25410;DHT22;13339;50.840;4.346;2023-03-14T11:45:03;9.10;99.90
25410;DHT22;13339;50.840;4.346;2023-03-14T11:47:37;9.10;99.90
25410;DHT22;13339;50.840;4.346;2023-03-14T11:50:08;9.10;99.90
25410;DHT22;13339;50.840;4.346;2023-03-14T11:52:44;9.10;99.90
25410;DHT22;13339;50.840;4.346;2023-03-14T11:55:18;9.20;99.90
25410;DHT22;13339;50.840;4.346;2023-03-14T11:57:46;9.10;99.90
25410;DHT22;13339;50.840;4.346;2023-03-14T12:00:21;9.20;99.90
25410;DHT22;13339;50.840;4.346;2023-03-14T12:02:57;9.30;99.90
25410;DHT22;13339;50.840;4.346;2023-03-14T12:05:46;9.20;99.90
25410;DHT22;13339;50.840;4.346;2023-03-14T12:08:31;9.10;99.90
25410;DHT22;13339;50.840;4.346;2023-03-14T12:14:34;9.30;99.90
25410;DHT22;13339;50.840;4.346;2023-03-14T12:19:38;9.60;99.90
25410;DHT22;13339;50.840;4.346;2023-03-14T12:22:26;9.60;99.90
25410;DHT22;13339;50.840;4.346;2023-03-14T12:25:26;9.60;99.90
25410;DHT22;13339;50.840;4.346;2023-03-14T12:30:40;9.60;99.90
25410;DHT22;13339;50.840;4.346;2023-03-14T12:35:36;9.40;99.90
25410;DHT22;13339;50.840;4.346;2023-03-14T12:41:05;9.60;99.90
25410;DHT22;13339;50.840;4.346;2023-03-14T12:43:34;9.60;99.90
25410;DHT22;13339;50.840;4.346;2023-03-14T12:46:24;9.50;99.90
25410;DHT22;13339;50.840;4.346;2023-03-14T12:48:54;9.40;99.90
25410;DHT22;13339;50.840;4.346;2023-03-14T12:51:35;9.50;99.90
25410;DHT22;13339;50.840;4.346;2023-03-14T12:54:33;9.40;99.90
25410;DHT22;13339;50.840;4.346;2023-03-14T12:59:59;9.50;99.90
25410;DHT22;13339;50.840;4.346;2023-03-14T13:02:38;9.60;99.90
25410;DHT22;13339;50.840;4.346;2023-03-14T13:05:21;9.70;99.90
25410;DHT22;13339;50.840;4.346;2023-03-14T13:13:07;10.10;99.90
25410;DHT22;13339;50.840;4.346;2023-03-14T13:15:41;10.30;99.90
25410;DHT22;13339;50.840;4.346;2023-03-14T13:18:23;10.30;99.90
25410;DHT22;13339;50.840;4.346;2023-03-14T13:20:53;10.30;99.90
25410;DHT22;13339;50.840;4.346;2023-03-14T13:23:25;10.30;99.90
25410;DHT22;13339;50.840;4.346;2023-03-14T13:25:51;10.30;99.90
25410;DHT22;13339;50.840;4.346;2023-03-14T13:28:18;10.30;99.90
25410;DHT22;13339;50.840;4.346;2023-03-14T13:30:46;10.10;99.90
25410;DHT22;13339;50.840;4.346;2023-03-14T13:33:17;9.70;99.90
25410;DHT22;13339;50.840;4.346;2023-03-14T13:35:46;9.40;99.90
25410;DHT22;13339;50.840;4.346;2023-03-14T13:38:21;9.20;99.90
25410;DHT22;13339;50.840;4.346;2023-03-14T13:40:49;9.20;99.90
25410;DHT22;13339;50.840;4.346;2023-03-14T13:43:16;9.50;99.90
25410;DHT22;13339;50.840;4.346;2023-03-14T13:45:51;9.50;99.90
25410;DHT22;13339;50.840;4.346;2023-03-14T13:48:19;9.50;99.90
25410;DHT22;13339;50.840;4.346;2023-03-14T13:51:06;9.60;99.90
25410;DHT22;13339;50.840;4.346;2023-03-14T13:53:42;9.80;99.90
25410;DHT22;13339;50.840;4.346;2023-03-14T13:56:10;9.70;99.90
25410;DHT22;13339;50.840;4.346;2023-03-14T13:58:37;9.70;99.90
25410;DHT22;13339;50.840;4.346;2023-03-14T14:01:13;9.70;99.90
25410;DHT22;13339;50.840;4.346;2023-03-14T14:03:41;9.90;99.90
25410;DHT22;13339;50.840;4.346;2023-03-14T14:08:56;10.00;99.90
25410;DHT22;13339;50.840;4.346;2023-03-14T14:11:37;10.20;99.90
25410;DHT22;13339;50.840;4.346;2023-03-14T14:14:06;10.30;99.90
25410;DHT22;13339;50.840;4.346;2023-03-14T14:16:34;10.40;99.90
25410;DHT22;13339;50.840;4.346;2023-03-14T14:19:00;10.50;99.90
25410;DHT22;13339;50.840;4.346;2023-03-14T14:21:27;10.30;99.90
25410;DHT22;13339;50.840;4.346;2023-03-14T14:23:53;10.30;99.90
25410;DHT22;13339;50.840;4.346;2023-03-14T14:26:20;10.10;99.90
25410;DHT22;13339;50.840;4.346;2023-03-14T14:28:46;9.90;99.90
25410;DHT22;13339;50.840;4.346;2023-03-14T14:33:59;9.50;99.90
25410;DHT22;13339;50.840;4.346;2023-03-14T14:36:37;9.50;99.90
25410;DHT22;13339;50.840;4.346;2023-03-14T14:41:35;9.40;99.90
25410;DHT22;13339;50.840;4.346;2023-03-14T14:44:05;9.40;99.90
25410;DHT22;13339;50.840;4.346;2023-03-14T14:46:32;9.40;99.90
25410;DHT22;13339;50.840;4.346;2023-03-14T14:49:06;8.90;99.90
25410;DHT22;13339;50.840;4.346;2023-03-14T14:52:31;8.60;99.90
25410;DHT22;13339;50.840;4.346;2023-03-14T14:54:35;8.40;99.90
25410;DHT22;13339;50.840;4.346;2023-03-14T14:57:04;8.40;99.90
25410;DHT22;13339;50.840;4.346;2023-03-14T14:59:30;8.20;99.90
25410;DHT22;13339;50.840;4.346;2023-03-14T15:02:01;8.00;99.90
25410;DHT22;13339;50.840;4.346;2023-03-14T15:04:27;7.90;99.90
25410;DHT22;13339;50.840;4.346;2023-03-14T15:06:55;7.90;99.90
25410;DHT22;13339;50.840;4.346;2023-03-14T15:09:20;8.00;99.90
25410;DHT22;13339;50.840;4.346;2023-03-14T15:11:47;8.00;99.90
25410;DHT22;13339;50.840;4.346;2023-03-14T15:14:13;8.00;99.90
25410;DHT22;13339;50.840;4.346;2023-03-14T15:16:39;8.00;99.90
25410;DHT22;13339;50.840;4.346;2023-03-14T15:19:24;8.00;99.90
25410;DHT22;13339;50.840;4.346;2023-03-14T15:21:52;8.20;99.90
25410;DHT22;13339;50.840;4.346;2023-03-14T15:24:17;8.50;99.90
25410;DHT22;13339;50.840;4.346;2023-03-14T15:26:43;8.70;99.90
25410;DHT22;13339;50.840;4.346;2023-03-14T15:29:11;8.80;99.90
25410;DHT22;13339;50.840;4.346;2023-03-14T15:31:38;9.10;99.90
25410;DHT22;13339;50.840;4.346;2023-03-14T15:34:04;9.30;99.90
25410;DHT22;13339;50.840;4.346;2023-03-14T15:36:34;9.60;99.90
25410;DHT22;13339;50.840;4.346;2023-03-14T15:39:01;9.80;99.90
25410;DHT22;13339;50.840;4.346;2023-03-14T15:41:27;10.00;99.90
25410;DHT22;13339;50.840;4.346;2023-03-14T15:43:53;10.00;99.90
25410;DHT22;13339;50.840;4.346;2023-03-14T15:46:19;10.10;99.90
25410;DHT22;13339;50.840;4.346;2023-03-14T15:48:48;10.20;99.90
25410;DHT22;13339;50.840;4.346;2023-03-14T15:51:13;10.30;99.90
25410;DHT22;13339;50.840;4.346;2023-03-14T15:53:39;10.30;99.90
25410;DHT22;13339;50.840;4.346;2023-03-14T15:56:07;10.40;99.90
25410;DHT22;13339;50.840;4.346;2023-03-14T15:58:33;10.50;99.90
25410;DHT22;13339;50.840;4.346;2023-03-14T16:01:02;10.50;99.90
25410;DHT22;13339;50.840;4.346;2023-03-14T16:03:31;10.50;99.90
25410;DHT22;13339;50.840;4.346;2023-03-14T16:05:56;10.50;99.90
25410;DHT22;13339;50.840;4.346;2023-03-14T16:08:23;10.50;99.90
25410;DHT22;13339;50.840;4.346;2023-03-14T16:10:50;10.30;99.90
25410;DHT22;13339;50.840;4.346;2023-03-14T16:13:16;10.30;99.90
25410;DHT22;13339;50.840;4.346;2023-03-14T16:15:41;10.40;99.90
25410;DHT22;13339;50.840;4.346;2023-03-14T16:18:07;10.40;99.90
25410;DHT22;13339;50.840;4.346;2023-03-14T16:20:33;10.40;99.90
25410;DHT22;13339;50.840;4.346;2023-03-14T16:22:58;10.50;99.90
25410;DHT22;13339;50.840;4.346;2023-03-14T16:25:24;10.40;99.90
25410;DHT22;13339;50.840;4.346;2023-03-14T16:27:49;10.50;99.90
25410;DHT22;13339;50.840;4.346;2023-03-14T16:30:15;10.30;99.90
25410;DHT22;13339;50.840;4.346;2023-03-14T16:32:41;10.40;99.90
25410;DHT22;13339;50.840;4.346;2023-03-14T16:35:06;10.30;99.90
25410;DHT22;13339;50.840;4.346;2023-03-14T16:37:32;10.30;99.90
25410;DHT22;13339;50.840;4.346;2023-03-14T16:39:58;10.30;99.90
25410;DHT22;13339;50.840;4.346;2023-03-14T16:42:24;10.30;99.90
25410;DHT22;13339;50.840;4.346;2023-03-14T16:44:49;10.30;99.90
25410;DHT22;13339;50.840;4.346;2023-03-14T16:47:16;10.30;99.90